메인 페이지
METAR-TAF:

METAR-TAF

공항 :

Terrell Municipal Airport

테럴, 텍사스, 미국

위도: 32-42-49N, 경도: 096-16-06W, 고도: 144m

현재 날씨관측

예보는 30분 전, 06:53시(UTC)에 발표되었습니다.
동남동4kt
온도 22°C
습도 83%
기압 1013 hPa
시정: 16.1km
고도 1800ft 상공 구름 보통
고도 2300ft 상공 구름 많음
고도 4200ft 상공 흐림

METAR: KTRL 230653Z AUTO 11004KT 10SM SCT018 BKN023 OVC042 22/19 A2991 RMK AO2 SLP122 T02170194

시각: 02:23 (07:23 UTC)


TAF: 누락

4,000개 이상의 공항 관측 자료 및 예보 (METAR 및 TAF 보고).

지도상에서 검색 가능한 기상관측소가 노란 점과 빨간 점으로 표시되어 있습니다.

기상관측소 명을 보려면 표시 위로 마우스를 이동하세요.

날씨 관측과 예보를 보려면 클릭하세요.

지도 변경 : 확대하려면 엑스 표시가 있는 녹색 버튼, 축소하려면 빼기 표시가 있는 녹색 버튼, 다음 페이지의 지도를 보려면 녹색 화살표를 클릭하세요.


METAR-TAF: